createdAt,value
2023-02-08T00:01:16.388Z,91.30
2023-02-08T00:03:47.053Z,91.50
2023-02-08T00:06:17.318Z,91.50
2023-02-08T00:08:45.470Z,91.30
2023-02-08T00:11:14.112Z,91.20
2023-02-08T00:13:42.929Z,91.20
2023-02-08T00:16:12.328Z,91.20
2023-02-08T00:18:40.736Z,91.10
2023-02-08T00:21:10.843Z,91.10
2023-02-08T00:23:40.627Z,91.00
2023-02-08T00:26:09.147Z,91.10
2023-02-08T00:28:37.572Z,91.60
2023-02-08T00:31:06.181Z,91.70
2023-02-08T00:33:34.313Z,91.60
2023-02-08T00:36:03.521Z,91.40
2023-02-08T00:38:31.724Z,91.60
2023-02-08T00:41:01.173Z,91.70
2023-02-08T00:43:29.206Z,91.90
2023-02-08T00:45:57.820Z,92.00
2023-02-08T00:48:26.161Z,91.90
2023-02-08T00:51:02.010Z,91.80
2023-02-08T00:53:30.070Z,91.80
2023-02-08T00:55:58.462Z,92.20
2023-02-08T00:58:27.813Z,92.50
2023-02-08T01:00:56.179Z,92.40
2023-02-08T01:03:25.150Z,92.30
2023-02-08T01:05:53.833Z,92.10
2023-02-08T01:08:22.103Z,92.20
2023-02-08T01:10:50.136Z,92.10
2023-02-08T01:13:18.520Z,91.90
2023-02-08T01:15:47.900Z,91.70
2023-02-08T01:18:15.852Z,91.70
2023-02-08T01:20:43.942Z,91.40
2023-02-08T01:23:11.931Z,91.30
2023-02-08T01:25:39.950Z,91.50
2023-02-08T01:28:07.978Z,91.20
2023-02-08T01:30:36.039Z,91.40
2023-02-08T01:33:05.459Z,91.80
2023-02-08T01:35:33.404Z,92.00
2023-02-08T01:38:01.555Z,92.00
2023-02-08T01:40:29.596Z,91.60
2023-02-08T01:42:57.607Z,91.60
2023-02-08T01:45:28.240Z,91.70
2023-02-08T01:48:04.350Z,91.80
2023-02-08T01:50:40.614Z,91.80
2023-02-08T01:53:09.393Z,91.60
2023-02-08T01:55:41.055Z,91.10
2023-02-08T01:58:11.386Z,91.00
2023-02-08T02:00:39.639Z,90.60
2023-02-08T02:03:08.189Z,90.80
2023-02-08T02:05:42.472Z,91.10
2023-02-08T02:08:12.165Z,91.70
2023-02-08T02:10:41.806Z,91.90
2023-02-08T02:13:13.150Z,92.00
2023-02-08T02:15:41.591Z,91.90
2023-02-08T02:18:10.340Z,91.70
2023-02-08T02:21:03.940Z,91.80
2023-02-08T02:24:11.798Z,91.80
2023-02-08T02:27:15.454Z,92.00
2023-02-08T02:30:25.065Z,91.60
2023-02-08T02:33:16.436Z,91.60
2023-02-08T02:35:48.780Z,91.10
2023-02-08T02:38:26.495Z,90.80
2023-02-08T02:41:07.227Z,90.80
2023-02-08T02:43:46.369Z,91.20
2023-02-08T02:46:26.111Z,91.70
2023-02-08T02:49:02.291Z,91.80
2023-02-08T02:51:39.707Z,91.70
2023-02-08T02:54:12.561Z,91.40
2023-02-08T02:56:44.282Z,91.00
2023-02-08T02:59:14.167Z,91.00
2023-02-08T03:01:45.138Z,90.70
2023-02-08T03:04:19.705Z,90.50
2023-02-08T03:07:02.749Z,90.90
2023-02-08T03:09:45.242Z,90.50
2023-02-08T03:12:27.032Z,90.20
2023-02-08T03:14:59.871Z,90.30
2023-02-08T03:17:42.763Z,90.20
2023-02-08T03:20:15.007Z,90.00
2023-02-08T03:22:50.966Z,90.10
2023-02-08T03:25:23.913Z,90.30
2023-02-08T03:28:07.048Z,90.70
2023-02-08T03:30:46.037Z,91.20
2023-02-08T03:33:19.060Z,91.70
2023-02-08T03:35:57.408Z,92.60
2023-02-08T03:38:31.119Z,92.40
2023-02-08T03:41:02.508Z,92.50
2023-02-08T03:43:34.622Z,92.10
2023-02-08T03:46:07.681Z,91.70
2023-02-08T03:48:38.087Z,91.90
2023-02-08T03:51:09.174Z,91.70
2023-02-08T03:53:40.567Z,91.10
2023-02-08T03:56:12.036Z,91.30
2023-02-08T03:58:44.847Z,90.90
2023-02-08T04:01:17.739Z,91.00
2023-02-08T04:03:48.796Z,91.50
2023-02-08T04:06:18.384Z,91.80
2023-02-08T04:08:46.475Z,92.00
2023-02-08T04:11:14.478Z,91.80
2023-02-08T04:13:42.465Z,92.00
2023-02-08T04:16:12.981Z,91.90
2023-02-08T04:18:41.021Z,91.60
2023-02-08T04:21:11.007Z,91.70
2023-02-08T04:23:40.346Z,91.70
2023-02-08T04:26:08.845Z,91.40
2023-02-08T04:28:37.089Z,91.60
2023-02-08T04:31:05.233Z,91.40
2023-02-08T04:33:33.338Z,91.70
2023-02-08T04:36:01.353Z,91.30
2023-02-08T04:38:29.542Z,91.20
2023-02-08T04:40:58.835Z,91.50
2023-02-08T04:43:26.832Z,91.20
2023-02-08T04:45:54.961Z,91.20
2023-02-08T04:48:23.035Z,91.30
2023-02-08T04:50:51.129Z,91.30
2023-02-08T04:53:19.078Z,91.40
2023-02-08T04:55:47.131Z,91.10
2023-02-08T04:58:16.496Z,91.10
2023-02-08T05:00:44.789Z,90.90
2023-02-08T05:03:13.412Z,90.90
2023-02-08T05:05:41.485Z,90.80
2023-02-08T05:08:10.011Z,90.80
2023-02-08T05:10:38.233Z,90.90
2023-02-08T05:13:06.333Z,90.60
2023-02-08T05:15:36.211Z,90.70
2023-02-08T05:18:04.180Z,90.50
2023-02-08T05:20:33.709Z,90.30
2023-02-08T05:23:01.764Z,90.10
2023-02-08T05:25:29.853Z,89.80
2023-02-08T05:27:57.993Z,89.30
2023-02-08T05:30:25.961Z,89.80
2023-02-08T05:32:55.352Z,88.80
2023-02-08T05:35:23.340Z,89.70
2023-02-08T05:37:51.386Z,90.20
2023-02-08T05:40:19.604Z,90.10
2023-02-08T05:42:48.012Z,89.70
2023-02-08T05:45:16.027Z,89.30
2023-02-08T05:47:44.048Z,89.00
2023-02-08T05:50:13.427Z,89.30
2023-02-08T05:52:41.732Z,90.00
2023-02-08T05:55:10.133Z,90.00
2023-02-08T05:57:38.968Z,90.30
2023-02-08T06:00:08.233Z,90.50
2023-02-08T06:02:36.417Z,90.10
2023-02-08T06:05:04.483Z,90.10
2023-02-08T06:07:33.868Z,89.90
2023-02-08T06:10:01.864Z,89.50
2023-02-08T06:12:29.878Z,90.00
2023-02-08T06:14:57.874Z,90.20
2023-02-08T06:17:25.878Z,90.50
2023-02-08T06:19:55.007Z,90.50
2023-02-08T06:22:22.983Z,90.50
2023-02-08T06:24:52.359Z,90.60
2023-02-08T06:27:20.817Z,90.70
2023-02-08T06:29:48.793Z,91.00
2023-02-08T06:32:16.775Z,90.70
2023-02-08T06:34:44.800Z,90.70
2023-02-08T06:37:12.859Z,90.80
2023-02-08T06:39:41.495Z,91.00
2023-02-08T06:42:11.153Z,90.90
2023-02-08T06:44:45.919Z,90.80
2023-02-08T06:47:19.603Z,90.70
2023-02-08T06:49:47.571Z,90.40
2023-02-08T06:52:15.560Z,90.30
2023-02-08T06:54:43.782Z,90.30
2023-02-08T06:57:13.380Z,90.40
2023-02-08T06:59:41.479Z,90.40
2023-02-08T07:02:13.817Z,90.20
2023-02-08T07:04:41.873Z,90.00
2023-02-08T07:07:10.039Z,90.10
2023-02-08T07:09:38.278Z,90.20
2023-02-08T07:12:06.930Z,90.30
2023-02-08T07:14:38.431Z,90.10
2023-02-08T07:17:06.727Z,89.00
2023-02-08T07:19:34.882Z,88.80
2023-02-08T07:22:08.138Z,88.50
2023-02-08T07:24:36.858Z,87.60
2023-02-08T07:27:05.801Z,89.00
2023-02-08T07:29:34.829Z,89.80
2023-02-08T07:32:05.352Z,88.80
2023-02-08T07:34:35.416Z,88.90
2023-02-08T07:37:03.523Z,90.10
2023-02-08T07:39:31.689Z,90.20
2023-02-08T07:41:59.858Z,89.60
2023-02-08T07:44:27.886Z,89.90
2023-02-08T07:46:56.132Z,89.80
2023-02-08T07:49:25.618Z,88.50
2023-02-08T07:51:53.561Z,87.60
2023-02-08T07:54:21.622Z,87.90
2023-02-08T07:56:49.772Z,88.00
2023-02-08T07:59:17.807Z,87.80
2023-02-08T08:01:45.981Z,87.60
2023-02-08T08:04:14.072Z,87.60
2023-02-08T08:06:43.435Z,86.80
2023-02-08T08:09:11.640Z,86.60
2023-02-08T08:11:39.610Z,86.10
2023-02-08T08:14:07.634Z,86.10
2023-02-08T08:16:35.811Z,86.40
2023-02-08T08:19:03.866Z,86.40
2023-02-08T08:21:31.839Z,86.60
2023-02-08T08:24:01.229Z,86.30
2023-02-08T08:26:29.761Z,86.50
2023-02-08T08:28:57.975Z,86.40
2023-02-08T08:31:26.165Z,86.10
2023-02-08T08:33:54.314Z,85.50
2023-02-08T08:36:22.352Z,85.80
2023-02-08T08:38:50.390Z,86.10
2023-02-08T08:41:22.244Z,87.80
2023-02-08T08:43:50.417Z,87.70
2023-02-08T08:46:18.378Z,88.00
2023-02-08T08:48:47.267Z,87.10
2023-02-08T08:51:15.837Z,87.00
2023-02-08T08:53:43.926Z,86.80
2023-02-08T08:56:12.044Z,85.60
2023-02-08T08:58:41.421Z,85.20
2023-02-08T09:01:09.442Z,84.80
2023-02-08T09:03:37.630Z,85.80
2023-02-08T09:06:05.956Z,85.70
2023-02-08T09:08:33.947Z,84.60
2023-02-08T09:11:06.645Z,84.00
2023-02-08T09:13:34.944Z,84.20
2023-02-08T09:16:10.399Z,83.70
2023-02-08T09:18:38.662Z,82.60
2023-02-08T09:21:07.833Z,80.40
2023-02-08T09:23:35.851Z,80.50
2023-02-08T09:26:04.680Z,79.50
2023-02-08T09:28:33.175Z,78.80
2023-02-08T09:31:07.968Z,77.70
2023-02-08T09:33:37.627Z,77.10
2023-02-08T09:36:06.704Z,77.40
2023-02-08T09:38:35.666Z,77.40
2023-02-08T09:41:15.289Z,76.30
2023-02-08T09:43:51.314Z,75.80
2023-02-08T09:46:22.508Z,76.20
2023-02-08T09:48:53.982Z,76.00
2023-02-08T09:51:30.848Z,75.30
2023-02-08T09:54:03.033Z,74.60
2023-02-08T09:56:36.284Z,74.20
2023-02-08T09:59:06.275Z,73.40
2023-02-08T10:01:36.953Z,73.40
2023-02-08T10:04:13.406Z,74.20
2023-02-08T10:06:41.682Z,73.80
2023-02-08T10:09:15.483Z,73.90
2023-02-08T10:11:58.183Z,74.60
2023-02-08T10:14:45.177Z,73.50
2023-02-08T10:17:44.260Z,74.40
2023-02-08T10:20:26.257Z,72.90
2023-02-08T10:23:05.186Z,70.90
2023-02-08T10:25:53.006Z,69.70
2023-02-08T10:28:58.841Z,69.00
2023-02-08T10:31:39.857Z,68.60
2023-02-08T10:34:21.192Z,69.10
2023-02-08T10:36:50.601Z,68.60
2023-02-08T10:39:21.553Z,69.00
2023-02-08T10:41:49.560Z,69.50
2023-02-08T10:44:28.138Z,68.90
2023-02-08T10:47:04.463Z,68.80
2023-02-08T10:49:40.017Z,68.20
2023-02-08T10:52:09.405Z,67.90
2023-02-08T10:54:37.550Z,69.10
2023-02-08T10:57:12.803Z,68.60
2023-02-08T10:59:50.692Z,67.60
2023-02-08T11:02:26.374Z,67.40
2023-02-08T11:05:03.124Z,67.60
2023-02-08T11:07:36.220Z,67.80
2023-02-08T11:10:24.757Z,67.50
2023-02-08T11:12:58.477Z,67.50
2023-02-08T11:15:29.011Z,67.40
2023-02-08T11:18:01.184Z,67.40
2023-02-08T11:20:36.648Z,67.20
2023-02-08T11:23:08.117Z,66.70
2023-02-08T11:25:39.172Z,65.90
2023-02-08T11:28:23.908Z,65.30
2023-02-08T11:31:00.361Z,64.20
2023-02-08T11:33:29.741Z,63.90
2023-02-08T11:36:15.674Z,64.60
2023-02-08T11:38:45.002Z,64.30
2023-02-08T11:41:19.079Z,64.60
2023-02-08T11:43:57.952Z,64.60
2023-02-08T11:46:28.574Z,63.70
2023-02-08T11:48:57.519Z,64.40
2023-02-08T11:51:29.654Z,64.00
2023-02-08T11:54:00.504Z,63.40
2023-02-08T11:56:31.148Z,63.10
2023-02-08T11:59:03.362Z,62.70
2023-02-08T12:01:33.585Z,61.10
2023-02-08T12:04:05.435Z,62.00
2023-02-08T12:06:57.062Z,60.80
2023-02-08T12:09:42.079Z,59.10
2023-02-08T12:12:19.502Z,59.30
2023-02-08T12:14:55.237Z,59.10
2023-02-08T12:17:47.601Z,59.20
2023-02-08T12:20:36.186Z,59.30
2023-02-08T12:23:36.826Z,59.60
2023-02-08T12:26:15.500Z,60.00
2023-02-08T12:28:54.696Z,58.50
2023-02-08T12:31:37.082Z,58.30
2023-02-08T12:34:16.425Z,56.30
2023-02-08T12:37:14.012Z,56.70
2023-02-08T12:40:06.466Z,57.50
2023-02-08T12:42:45.801Z,57.10
2023-02-08T12:45:35.775Z,57.60
2023-02-08T12:48:17.978Z,56.50
2023-02-08T12:50:53.299Z,55.80
2023-02-08T12:53:25.817Z,55.50
2023-02-08T12:55:57.540Z,56.00
2023-02-08T12:58:31.219Z,56.80
2023-02-08T13:01:06.600Z,56.50
2023-02-08T13:03:45.128Z,56.10
2023-02-08T13:06:19.423Z,55.10
2023-02-08T13:08:51.617Z,54.50
2023-02-08T13:11:29.242Z,53.70
2023-02-08T13:14:04.735Z,54.20
2023-02-08T13:16:36.931Z,54.60
2023-02-08T13:19:25.820Z,55.10
2023-02-08T13:21:55.546Z,54.50
2023-02-08T13:24:31.432Z,54.60
2023-02-08T13:26:59.467Z,55.00
2023-02-08T13:29:30.540Z,54.50
2023-02-08T13:32:03.315Z,54.60
2023-02-08T13:34:37.155Z,54.50
2023-02-08T13:37:24.113Z,53.90
2023-02-08T13:40:01.415Z,53.20
2023-02-08T13:42:31.861Z,54.70
2023-02-08T13:45:03.034Z,54.90
2023-02-08T13:47:33.925Z,54.90
2023-02-08T13:50:07.385Z,55.00
2023-02-08T13:52:52.874Z,55.30
2023-02-08T13:55:46.014Z,55.30
2023-02-08T13:58:55.381Z,55.30
2023-02-08T14:01:27.696Z,55.70
2023-02-08T14:04:18.295Z,55.00
2023-02-08T14:06:51.052Z,54.80
2023-02-08T14:09:26.359Z,54.60
2023-02-08T14:12:01.196Z,55.90
2023-02-08T14:14:31.956Z,55.60
2023-02-08T14:17:29.778Z,55.90
2023-02-08T14:20:00.750Z,55.40
2023-02-08T14:22:36.607Z,55.80
2023-02-08T14:25:07.844Z,56.30
2023-02-08T14:27:40.658Z,56.40
2023-02-08T14:30:21.072Z,56.40
2023-02-08T14:32:53.205Z,56.20
2023-02-08T14:35:24.826Z,56.80
2023-02-08T14:38:31.275Z,57.10
2023-02-08T14:41:00.428Z,57.50
2023-02-08T14:43:34.877Z,58.10
2023-02-08T14:46:40.309Z,58.10
2023-02-08T14:49:12.754Z,58.30
2023-02-08T14:51:44.073Z,58.30
2023-02-08T14:54:24.332Z,58.20
2023-02-08T14:56:59.384Z,58.60
2023-02-08T14:59:35.255Z,58.90
2023-02-08T15:02:12.529Z,59.40
2023-02-08T15:04:47.234Z,60.10
2023-02-08T15:07:23.589Z,60.90
2023-02-08T15:09:51.764Z,61.20
2023-02-08T15:12:25.974Z,61.40
2023-02-08T15:14:55.295Z,61.70
2023-02-08T15:17:32.071Z,61.70
2023-02-08T15:20:03.177Z,62.10
2023-02-08T15:22:34.787Z,62.70
2023-02-08T15:25:14.347Z,62.10
2023-02-08T15:27:48.666Z,61.80
2023-02-08T15:30:28.546Z,62.60
2023-02-08T15:32:57.014Z,63.20
2023-02-08T15:35:28.000Z,63.80
2023-02-08T15:37:57.061Z,64.20
2023-02-08T15:40:30.540Z,64.80
2023-02-08T15:43:05.046Z,65.40
2023-02-08T15:45:33.220Z,66.70
2023-02-08T15:48:02.737Z,67.80
2023-02-08T15:50:33.415Z,67.70
2023-02-08T15:53:04.661Z,67.90
2023-02-08T15:55:39.510Z,68.50
2023-02-08T15:58:16.478Z,69.40
2023-02-08T16:00:47.392Z,69.00
2023-02-08T16:03:23.630Z,69.40
2023-02-08T16:05:55.900Z,70.00
2023-02-08T16:08:28.061Z,71.30
2023-02-08T16:10:59.851Z,71.60
2023-02-08T16:13:31.037Z,71.20
2023-02-08T16:16:15.900Z,71.70
2023-02-08T16:18:46.149Z,71.80
2023-02-08T16:21:41.485Z,71.70
2023-02-08T16:24:22.013Z,71.40
2023-02-08T16:27:03.720Z,71.70
2023-02-08T16:29:33.675Z,72.10
2023-02-08T16:32:07.120Z,72.70
2023-02-08T16:34:39.516Z,73.00
2023-02-08T16:37:24.241Z,73.00
2023-02-08T16:39:54.426Z,73.20
2023-02-08T16:42:31.516Z,73.60
2023-02-08T16:45:18.271Z,75.20
2023-02-08T16:47:50.197Z,73.80
2023-02-08T16:50:20.634Z,74.00
2023-02-08T16:52:55.431Z,74.20
2023-02-08T16:55:25.797Z,74.30
2023-02-08T16:57:55.973Z,74.50
2023-02-08T17:00:26.531Z,74.50
2023-02-08T17:02:55.199Z,75.30
2023-02-08T17:05:28.685Z,76.80
2023-02-08T17:07:58.850Z,77.20
2023-02-08T17:10:29.273Z,76.50
2023-02-08T17:13:13.480Z,76.30
2023-02-08T17:15:46.257Z,76.00
2023-02-08T17:18:14.617Z,79.30
2023-02-08T17:20:43.029Z,81.80
2023-02-08T17:23:13.064Z,80.40
2023-02-08T17:25:41.426Z,77.80
2023-02-08T17:28:15.005Z,77.50
2023-02-08T17:30:45.055Z,77.40
2023-02-08T17:33:18.114Z,79.60
2023-02-08T17:35:47.988Z,83.90
2023-02-08T17:38:17.878Z,81.00
2023-02-08T17:40:46.381Z,79.80
2023-02-08T17:43:14.960Z,79.50
2023-02-08T17:45:45.102Z,79.60
2023-02-08T17:48:14.357Z,80.80
2023-02-08T17:50:43.980Z,81.40
2023-02-08T17:53:12.296Z,81.10
2023-02-08T17:55:44.213Z,80.50
2023-02-08T17:58:12.878Z,81.10
2023-02-08T18:00:41.062Z,82.10
2023-02-08T18:03:09.175Z,82.50
2023-02-08T18:05:37.966Z,81.50
2023-02-08T18:08:06.365Z,81.30
2023-02-08T18:10:34.385Z,81.40
2023-02-08T18:13:03.784Z,82.20
2023-02-08T18:15:31.921Z,80.90
2023-02-08T18:17:59.916Z,80.10
2023-02-08T18:20:28.420Z,79.60
2023-02-08T18:22:56.422Z,79.00
2023-02-08T18:25:24.480Z,79.00
2023-02-08T18:27:52.504Z,80.90
2023-02-08T18:30:22.732Z,80.80
2023-02-08T18:32:50.710Z,79.70
2023-02-08T18:35:20.849Z,80.00
2023-02-08T18:37:49.591Z,80.20
2023-02-08T18:40:18.430Z,80.80
2023-02-08T18:42:54.044Z,81.30
2023-02-08T18:45:24.842Z,81.30
2023-02-08T18:47:54.594Z,81.20
2023-02-08T18:50:24.111Z,81.20
2023-02-08T18:52:52.202Z,81.10
2023-02-08T18:55:20.177Z,81.90
2023-02-08T18:57:48.649Z,83.60
2023-02-08T19:00:17.298Z,82.60
2023-02-08T19:02:46.863Z,82.50
2023-02-08T19:05:14.912Z,81.60
2023-02-08T19:07:42.868Z,82.30
2023-02-08T19:10:10.984Z,83.00
2023-02-08T19:12:38.991Z,81.30
2023-02-08T19:15:07.704Z,80.90
2023-02-08T19:17:35.676Z,80.80
2023-02-08T19:20:05.597Z,81.30
2023-02-08T19:22:33.595Z,81.80
2023-02-08T19:25:01.722Z,82.90
2023-02-08T19:27:29.799Z,83.00
2023-02-08T19:29:57.840Z,82.90
2023-02-08T19:32:25.857Z,81.70
2023-02-08T19:34:53.917Z,81.00
2023-02-08T19:37:23.329Z,81.70
2023-02-08T19:39:51.281Z,82.20
2023-02-08T19:42:19.315Z,82.70
2023-02-08T19:44:47.283Z,82.50
2023-02-08T19:47:15.367Z,82.30
2023-02-08T19:49:43.366Z,82.80
2023-02-08T19:52:11.468Z,83.10
2023-02-08T19:54:40.789Z,83.70
2023-02-08T19:57:11.799Z,83.80
2023-02-08T19:59:39.810Z,83.90
2023-02-08T20:02:11.549Z,85.30
2023-02-08T20:04:40.000Z,88.10
2023-02-08T20:07:08.764Z,87.40
2023-02-08T20:09:36.814Z,86.30
2023-02-08T20:12:08.767Z,84.80
2023-02-08T20:14:36.758Z,85.70
2023-02-08T20:17:05.512Z,86.80
2023-02-08T20:19:36.171Z,86.00
2023-02-08T20:22:04.999Z,85.70
2023-02-08T20:24:32.942Z,84.70
2023-02-08T20:27:01.035Z,83.80
2023-02-08T20:29:30.763Z,83.80
2023-02-08T20:32:00.594Z,84.20
2023-02-08T20:34:28.684Z,84.70
2023-02-08T20:37:12.139Z,84.80
2023-02-08T20:39:40.123Z,85.50
2023-02-08T20:42:11.358Z,86.30
2023-02-08T20:44:40.724Z,85.90
2023-02-08T20:47:08.979Z,85.90
2023-02-08T20:49:38.866Z,85.70
2023-02-08T20:52:07.003Z,85.50
2023-02-08T20:54:34.982Z,85.80
2023-02-08T20:57:03.042Z,85.50
2023-02-08T20:59:31.296Z,85.30
2023-02-08T21:02:00.732Z,85.00
2023-02-08T21:04:28.782Z,84.90
2023-02-08T21:06:56.863Z,84.80
2023-02-08T21:09:24.917Z,85.30
2023-02-08T21:11:53.336Z,84.70
2023-02-08T21:14:23.576Z,84.40
2023-02-08T21:16:53.923Z,84.20
2023-02-08T21:19:24.136Z,82.70
2023-02-08T21:21:52.257Z,85.40
2023-02-08T21:24:20.880Z,84.40
2023-02-08T21:26:48.915Z,83.60
2023-02-08T21:29:16.983Z,82.60
2023-02-08T21:31:45.153Z,83.40
2023-02-08T21:34:13.878Z,81.40
2023-02-08T21:36:43.227Z,80.30
2023-02-08T21:39:11.584Z,80.70
2023-02-08T21:41:39.610Z,80.10
2023-02-08T21:44:08.331Z,81.00
2023-02-08T21:46:36.964Z,80.70
2023-02-08T21:49:22.637Z,79.40
2023-02-08T21:52:09.794Z,80.40
2023-02-08T21:54:44.558Z,82.40
2023-02-08T21:57:16.046Z,83.20
2023-02-08T21:59:44.459Z,83.00
2023-02-08T22:02:15.788Z,83.70
2023-02-08T22:05:01.609Z,83.90
2023-02-08T22:07:31.155Z,79.70
2023-02-08T22:09:59.238Z,79.90
2023-02-08T22:12:27.240Z,82.70
2023-02-08T22:14:55.264Z,82.80
2023-02-08T22:17:24.305Z,83.10
2023-02-08T22:19:52.284Z,83.60
2023-02-08T22:22:21.371Z,84.00
2023-02-08T22:24:50.711Z,83.70
2023-02-08T22:27:18.816Z,84.20
2023-02-08T22:29:46.832Z,85.20
2023-02-08T22:32:17.050Z,85.70
2023-02-08T22:34:47.694Z,85.20
2023-02-08T22:37:16.616Z,85.70
2023-02-08T22:39:44.664Z,86.00
2023-02-08T22:42:14.819Z,85.70
2023-02-08T22:44:44.482Z,85.90
2023-02-08T22:47:13.630Z,85.50
2023-02-08T22:49:42.134Z,85.30
2023-02-08T22:52:10.650Z,85.50
2023-02-08T22:54:39.280Z,85.50
2023-02-08T22:57:09.151Z,85.50
2023-02-08T22:59:39.744Z,84.60
2023-02-08T23:02:08.198Z,83.80
2023-02-08T23:04:37.163Z,83.90
2023-02-08T23:07:05.752Z,84.50
2023-02-08T23:09:33.688Z,84.70
2023-02-08T23:12:01.705Z,83.80
2023-02-08T23:14:29.734Z,84.80
2023-02-08T23:16:59.139Z,83.20
2023-02-08T23:19:27.184Z,82.30
2023-02-08T23:21:58.451Z,84.00
2023-02-08T23:24:26.547Z,84.70
2023-02-08T23:26:54.608Z,84.50
2023-02-08T23:29:22.641Z,84.70
2023-02-08T23:31:50.825Z,85.50
2023-02-08T23:34:20.540Z,85.80
2023-02-08T23:36:48.788Z,86.10
2023-02-08T23:39:16.991Z,85.30
2023-02-08T23:41:44.956Z,84.40
2023-02-08T23:44:13.411Z,84.00
2023-02-08T23:46:41.461Z,85.00
2023-02-08T23:49:09.476Z,86.20
2023-02-08T23:51:38.833Z,85.60
2023-02-08T23:54:07.121Z,85.30
2023-02-08T23:56:35.266Z,85.50
2023-02-08T23:59:05.734Z,85.70
